Time,TemperatureF,DewpointF,PressureIn,WindDirection,WindDirectionDegrees,WindSpeedMPH,WindSpeedGustMPH,Humidity,HourlyPrecipIn,Conditions,Clouds,dailyrainin,SolarRadiationWatts/m^2,SoftwareType,DateUTC
2013-08-02 00:02:00,60.0,49.0,30.01,ESE,103,0.0,2.0,67,0.00,,,0.00,0.000000,,2013-08-02 07:02:00,
2013-08-02 00:12:00,60.0,49.0,30.01,ESE,103,0.0,2.0,67,0.00,,,0.00,0.000000,,2013-08-02 07:12:00,
2013-08-02 00:22:00,59.0,49.0,30.01,ESE,103,1.0,2.0,69,0.00,,,0.00,0.000000,,2013-08-02 07:22:00,
2013-08-02 00:33:00,59.0,49.0,30.00,West,271,1.0,3.0,70,0.00,,,0.00,0.000000,,2013-08-02 07:33:00,
2013-08-02 00:44:00,58.0,49.0,30.00,West,271,1.0,1.0,71,0.00,,,0.00,0.000000,,2013-08-02 07:44:00,
2013-08-02 00:53:00,58.0,49.0,30.00,West,271,1.0,1.0,71,0.00,,,0.00,0.000000,,2013-08-02 07:53:00,
2013-08-02 01:02:00,58.0,49.0,30.00,West,271,0.0,1.0,72,0.00,,,0.00,0.000000,,2013-08-02 08:02:00,
2013-08-02 01:12:00,57.0,48.0,30.00,West,271,1.0,1.0,73,0.00,,,0.00,0.000000,,2013-08-02 08:12:00,
2013-08-02 01:22:00,57.0,48.0,30.00,West,271,1.0,1.0,73,0.00,,,0.00,0.000000,,2013-08-02 08:22:00,
2013-08-02 01:33:00,57.0,49.0,30.00,West,271,1.0,2.0,74,0.00,,,0.00,0.000000,,2013-08-02 08:33:00,
2013-08-02 01:43:00,57.0,49.0,30.00,West,271,0.0,2.0,74,0.00,,,0.00,0.000000,,2013-08-02 08:43:00,
2013-08-02 01:53:00,57.0,49.0,30.00,West,271,0.0,2.0,74,0.00,,,0.00,0.000000,,2013-08-02 08:53:00,
2013-08-02 02:02:00,57.0,49.0,29.99,West,271,0.0,2.0,74,0.00,,,0.00,0.000000,,2013-08-02 09:02:00,
2013-08-02 02:12:00,57.0,49.0,29.99,West,271,0.0,2.0,74,0.00,,,0.00,0.000000,,2013-08-02 09:12:00,
2013-08-02 02:22:00,56.0,48.0,29.98,West,271,1.0,2.0,75,0.00,,,0.00,0.000000,,2013-08-02 09:22:00,
2013-08-02 02:33:00,56.0,49.0,29.98,West,271,0.0,2.0,76,0.00,,,0.00,0.000000,,2013-08-02 09:33:00,
2013-08-02 02:43:00,56.0,49.0,29.98,West,271,1.0,2.0,76,0.00,,,0.00,0.000000,,2013-08-02 09:43:00,
2013-08-02 02:52:00,56.0,49.0,29.98,West,271,1.0,2.0,76,0.00,,,0.00,0.000000,,2013-08-02 09:52:00,
2013-08-02 03:02:00,56.0,49.0,29.98,West,271,0.0,1.0,77,0.00,,,0.00,0.000000,,2013-08-02 10:02:00,
2013-08-02 03:12:00,56.0,49.0,29.98,West,271,0.0,1.0,77,0.00,,,0.00,0.000000,,2013-08-02 10:12:00,
2013-08-02 03:23:00,56.0,49.0,29.98,West,271,0.0,1.0,76,0.00,,,0.00,0.000000,,2013-08-02 10:23:00,
2013-08-02 03:33:00,56.0,49.0,29.97,WSW,243,0.0,3.0,76,0.00,,,0.00,0.000000,,2013-08-02 10:33:00,
2013-08-02 03:43:00,55.0,48.0,29.97,SW,225,0.0,2.0,78,0.00,,,0.00,0.000000,,2013-08-02 10:43:00,
2013-08-02 03:52:00,55.0,48.0,29.97,SW,225,0.0,2.0,78,0.00,,,0.00,0.000000,,2013-08-02 10:52:00,
2013-08-02 04:02:00,55.0,48.0,29.97,SSW,194,1.0,3.0,78,0.00,,,0.00,0.000000,,2013-08-02 11:02:00,
2013-08-02 04:11:00,55.0,49.0,29.97,SSE,166,1.0,2.0,79,0.00,,,0.00,0.000000,,2013-08-02 11:11:00,
2013-08-02 04:22:00,55.0,49.0,29.97,SSE,166,1.0,2.0,79,0.00,,,0.00,0.000000,,2013-08-02 11:22:00,
2013-08-02 04:32:00,55.0,49.0,29.97,SSE,155,0.0,2.0,79,0.00,,,0.00,0.000000,,2013-08-02 11:32:00,
2013-08-02 04:42:00,54.0,48.0,29.97,ESE,121,1.0,2.0,79,0.00,,,0.00,0.000000,,2013-08-02 11:42:00,
2013-08-02 04:52:00,54.0,48.0,29.97,ESE,121,1.0,2.0,79,0.00,,,0.00,0.000000,,2013-08-02 11:52:00,
2013-08-02 05:02:00,54.0,48.0,29.96,SSW,192,0.0,2.0,79,0.00,,,0.00,0.000000,,2013-08-02 12:02:00,
2013-08-02 05:21:00,54.0,48.0,29.97,SSW,192,0.0,1.0,80,0.00,,,0.00,0.000000,,2013-08-02 12:21:00,
2013-08-02 05:32:00,54.0,48.0,29.97,South,190,0.0,1.0,81,0.00,,,0.00,0.000000,,2013-08-02 12:32:00,
2013-08-02 05:42:00,53.0,47.0,29.97,South,190,0.0,1.0,81,0.00,,,0.00,0.000000,,2013-08-02 12:42:00,
2013-08-02 05:52:00,53.0,47.0,29.97,South,190,0.0,1.0,81,0.00,,,0.00,0.000000,,2013-08-02 12:52:00,
2013-08-02 06:02:00,54.0,48.0,29.97,South,190,0.0,1.0,81,0.00,,,0.00,0.000000,,2013-08-02 13:02:00,
2013-08-02 06:11:00,54.0,48.0,29.97,South,190,0.0,1.0,81,0.00,,,0.00,0.000000,,2013-08-02 13:11:00,
2013-08-02 06:22:00,54.0,48.0,29.97,South,190,0.0,1.0,81,0.00,,,0.00,0.000000,,2013-08-02 13:22:00,
2013-08-02 06:33:00,53.0,48.0,29.97,South,190,1.0,2.0,82,0.00,,,0.00,0.000000,,2013-08-02 13:33:00,
2013-08-02 06:42:00,54.0,48.0,29.98,South,190,0.0,1.0,81,0.00,,,0.00,9.000000,,2013-08-02 13:42:00,
2013-08-02 06:52:00,54.0,48.0,29.98,South,190,0.0,1.0,81,0.00,,,0.00,9.000000,,2013-08-02 13:52:00,
2013-08-02 07:02:00,53.0,48.0,29.98,South,190,1.0,1.0,82,0.00,,,0.00,12.000000,,2013-08-02 14:02:00,
2013-08-02 07:22:00,54.0,49.0,29.98,South,172,0.0,2.0,82,0.00,,,0.00,16.000000,,2013-08-02 14:22:00,
2013-08-02 07:43:00,55.0,50.0,30.00,South,172,0.0,1.0,82,0.00,,,0.00,28.000000,,2013-08-02 14:43:00,
2013-08-02 07:52:00,55.0,50.0,30.00,South,172,0.0,1.0,82,0.00,,,0.00,28.000000,,2013-08-02 14:52:00,
2013-08-02 08:03:00,56.0,50.0,30.00,South,172,0.0,1.0,80,0.00,,,0.00,206.000000,,2013-08-02 15:03:00,
2013-08-02 08:11:00,56.0,50.0,30.00,South,172,0.0,1.0,80,0.00,,,0.00,206.000000,,2013-08-02 15:11:00,
2013-08-02 08:22:00,60.0,51.0,30.01,South,172,1.0,2.0,72,0.00,,,0.00,265.000000,,2013-08-02 15:22:00,
2013-08-02 08:32:00,61.0,51.0,30.01,WSW,243,1.0,3.0,69,0.00,,,0.00,315.000000,,2013-08-02 15:32:00,
2013-08-02 08:52:00,61.0,50.0,30.01,NW,306,1.0,2.0,68,0.00,,,0.00,367.000000,,2013-08-02 15:52:00,
2013-08-02 09:02:00,62.0,51.0,30.01,SW,229,1.0,3.0,67,0.00,,,0.00,418.000000,,2013-08-02 16:02:00,
2013-08-02 09:11:00,62.0,51.0,30.01,SW,229,1.0,3.0,67,0.00,,,0.00,418.000000,,2013-08-02 16:11:00,
2013-08-02 09:22:00,63.0,51.0,30.01,West,276,1.0,4.0,66,0.00,,,0.00,466.000000,,2013-08-02 16:22:00,
2013-08-02 09:32:00,64.0,51.0,30.01,SW,234,2.0,4.0,63,0.00,,,0.00,517.000000,,2013-08-02 16:32:00,
2013-08-02 09:42:00,64.0,51.0,30.01,West,260,1.0,4.0,63,0.00,,,0.00,563.000000,,2013-08-02 16:42:00,
2013-08-02 09:52:00,64.0,51.0,30.01,West,260,1.0,4.0,63,0.00,,,0.00,563.000000,,2013-08-02 16:52:00,
2013-08-02 10:02:00,66.0,52.0,30.01,West,276,1.0,4.0,60,0.00,,,0.00,610.000000,,2013-08-02 17:02:00,
2013-08-02 10:11:00,66.0,52.0,30.01,West,276,1.0,4.0,60,0.00,,,0.00,610.000000,,2013-08-02 17:11:00,
2013-08-02 10:22:00,67.0,52.0,30.01,West,270,1.0,4.0,58,0.00,,,0.00,652.000000,,2013-08-02 17:22:00,
2013-08-02 10:34:00,67.0,52.0,30.01,West,270,1.0,4.0,58,0.00,,,0.00,652.000000,,2013-08-02 17:34:00,
2013-08-02 10:43:00,67.0,52.0,30.01,West,270,1.0,4.0,58,0.00,,,0.00,652.000000,,2013-08-02 17:43:00,
2013-08-02 10:52:00,70.0,52.0,30.01,SSW,212,2.0,4.0,53,0.00,,,0.00,735.000000,,2013-08-02 17:52:00,
2013-08-02 11:02:00,72.0,53.0,30.01,WSW,253,3.0,6.0,51,0.00,,,0.00,770.000000,,2013-08-02 18:02:00,
2013-08-02 11:12:00,72.0,53.0,30.01,WSW,253,3.0,6.0,51,0.00,,,0.00,770.000000,,2013-08-02 18:12:00,
2013-08-02 11:22:00,73.0,52.0,30.01,West,267,2.0,5.0,47,0.00,,,0.00,807.000000,,2013-08-02 18:22:00,
2013-08-02 11:32:00,74.0,52.0,30.01,NNW,334,2.0,5.0,46,0.00,,,0.00,837.000000,,2013-08-02 18:32:00,
2013-08-02 11:52:00,76.0,53.0,30.01,WNW,294,2.0,4.0,45,0.00,,,0.00,867.000000,,2013-08-02 18:52:00,
2013-08-02 12:11:00,77.0,53.0,30.01,WNW,292,2.0,4.0,44,0.00,,,0.00,889.000000,,2013-08-02 19:11:00,
2013-08-02 12:22:00,77.0,53.0,30.01,WSW,240,2.0,6.0,44,0.00,,,0.00,912.000000,,2013-08-02 19:22:00,
2013-08-02 12:32:00,78.0,54.0,30.01,WNW,295,3.0,7.0,43,0.00,,,0.00,926.000000,,2013-08-02 19:32:00,
2013-08-02 12:43:00,78.0,54.0,30.01,WNW,295,3.0,7.0,43,0.00,,,0.00,926.000000,,2013-08-02 19:43:00,
2013-08-02 12:52:00,78.0,54.0,30.01,WNW,295,3.0,7.0,43,0.00,,,0.00,926.000000,,2013-08-02 19:52:00,
2013-08-02 13:02:00,79.0,53.0,30.00,West,279,3.0,6.0,40,0.00,,,0.00,954.000000,,2013-08-02 20:02:00,
2013-08-02 13:12:00,79.0,53.0,30.00,West,279,3.0,6.0,40,0.00,,,0.00,954.000000,,2013-08-02 20:12:00,
2013-08-02 13:22:00,79.0,53.0,30.00,West,279,3.0,6.0,40,0.00,,,0.00,954.000000,,2013-08-02 20:22:00,
2013-08-02 13:32:00,79.0,53.0,30.00,West,279,3.0,6.0,40,0.00,,,0.00,954.000000,,2013-08-02 20:32:00,
2013-08-02 13:43:00,82.0,53.0,29.99,WNW,293,2.0,6.0,37,0.00,,,0.00,965.000000,,2013-08-02 20:43:00,
2013-08-02 13:52:00,82.0,53.0,29.99,WNW,293,2.0,6.0,37,0.00,,,0.00,965.000000,,2013-08-02 20:52:00,
2013-08-02 14:02:00,82.0,52.0,29.99,WNW,298,3.0,6.0,36,0.00,,,0.00,960.000000,,2013-08-02 21:02:00,
2013-08-02 14:11:00,82.0,52.0,29.99,WNW,298,3.0,6.0,36,0.00,,,0.00,960.000000,,2013-08-02 21:11:00,
2013-08-02 14:22:00,82.0,52.0,29.98,WNW,291,3.0,9.0,36,0.00,,,0.00,953.000000,,2013-08-02 21:22:00,
2013-08-02 14:32:00,83.0,52.0,29.98,South,182,3.0,6.0,35,0.00,,,0.00,940.000000,,2013-08-02 21:32:00,
2013-08-02 14:43:00,84.0,54.0,29.98,West,265,3.0,7.0,36,0.00,,,0.00,930.000000,,2013-08-02 21:43:00,
2013-08-02 14:53:00,84.0,54.0,29.98,West,265,3.0,7.0,36,0.00,,,0.00,930.000000,,2013-08-02 21:53:00,
2013-08-02 15:02:00,84.0,53.0,29.98,NW,315,4.0,8.0,35,0.00,,,0.00,909.000000,,2013-08-02 22:02:00,
2013-08-02 15:22:00,83.0,52.0,29.98,WNW,293,2.0,6.0,34,0.00,,,0.00,891.000000,,2013-08-02 22:22:00,
2013-08-02 15:32:00,84.0,51.0,29.98,WNW,302,3.0,8.0,32,0.00,,,0.00,863.000000,,2013-08-02 22:32:00,
2013-08-02 15:52:00,83.0,52.0,29.97,WSW,254,3.0,7.0,34,0.00,,,0.00,837.000000,,2013-08-02 22:52:00,
2013-08-02 16:02:00,83.0,52.0,29.97,WSW,254,3.0,7.0,34,0.00,,,0.00,837.000000,,2013-08-02 23:02:00,
2013-08-02 16:11:00,83.0,51.0,29.97,WNW,291,3.0,8.0,33,0.00,,,0.00,805.000000,,2013-08-02 23:11:00,
2013-08-02 16:22:00,83.0,52.0,29.96,West,277,3.0,7.0,34,0.00,,,0.00,772.000000,,2013-08-02 23:22:00,
2013-08-02 16:32:00,83.0,52.0,29.96,SW,222,3.0,7.0,34,0.00,,,0.00,731.000000,,2013-08-02 23:32:00,
2013-08-02 16:43:00,82.0,52.0,29.96,SW,224,3.0,9.0,35,0.00,,,0.00,691.000000,,2013-08-02 23:43:00,
2013-08-02 16:53:00,82.0,52.0,29.96,SW,224,3.0,9.0,35,0.00,,,0.00,691.000000,,2013-08-02 23:53:00,
2013-08-02 17:02:00,81.0,52.0,29.96,WSW,255,2.0,6.0,36,0.00,,,0.00,649.000000,,2013-08-03 00:02:00,
2013-08-02 17:11:00,81.0,52.0,29.96,WSW,255,2.0,6.0,36,0.00,,,0.00,649.000000,,2013-08-03 00:11:00,
2013-08-02 17:22:00,81.0,52.0,29.96,WNW,286,3.0,7.0,36,0.00,,,0.00,605.000000,,2013-08-03 00:22:00,
2013-08-02 17:32:00,80.0,51.0,29.96,WSW,240,3.0,6.0,36,0.00,,,0.00,555.000000,,2013-08-03 00:32:00,
2013-08-02 17:52:00,79.0,50.0,29.95,SW,227,3.0,7.0,36,0.00,,,0.00,492.000000,,2013-08-03 00:52:00,
2013-08-02 18:02:00,79.0,49.0,29.95,WNW,293,2.0,6.0,35,0.00,,,0.00,462.000000,,2013-08-03 01:02:00,
2013-08-02 18:22:00,79.0,48.0,29.95,WNW,292,2.0,5.0,34,0.00,,,0.00,190.000000,,2013-08-03 01:22:00,
2013-08-02 18:42:00,78.0,48.0,29.95,WSW,256,2.0,5.0,35,0.00,,,0.00,32.000000,,2013-08-03 01:42:00,
2013-08-02 18:53:00,78.0,48.0,29.95,WSW,256,2.0,5.0,35,0.00,,,0.00,32.000000,,2013-08-03 01:53:00,
2013-08-02 19:02:00,78.0,48.0,29.95,WSW,256,2.0,5.0,35,0.00,,,0.00,32.000000,,2013-08-03 02:02:00,
2013-08-02 19:11:00,78.0,48.0,29.95,WSW,256,2.0,5.0,35,0.00,,,0.00,32.000000,,2013-08-03 02:11:00,
2013-08-02 19:22:00,76.0,47.0,29.94,West,268,2.0,5.0,36,0.00,,,0.00,23.000000,,2013-08-03 02:22:00,
2013-08-02 19:32:00,76.0,47.0,29.94,West,268,2.0,5.0,36,0.00,,,0.00,23.000000,,2013-08-03 02:32:00,
2013-08-02 19:43:00,75.0,48.0,29.94,West,262,1.0,2.0,38,0.00,,,0.00,18.000000,,2013-08-03 02:43:00,
2013-08-02 19:52:00,75.0,48.0,29.94,West,262,1.0,2.0,38,0.00,,,0.00,18.000000,,2013-08-03 02:52:00,
2013-08-02 20:02:00,74.0,47.0,29.94,West,263,1.0,2.0,39,0.00,,,0.00,14.000000,,2013-08-03 03:02:00,
2013-08-02 20:22:00,73.0,47.0,29.94,West,263,1.0,2.0,40,0.00,,,0.00,11.000000,,2013-08-03 03:22:00,
2013-08-02 20:32:00,72.0,46.0,29.95,West,263,1.0,1.0,40,0.00,,,0.00,5.000000,,2013-08-03 03:32:00,
2013-08-02 20:43:00,72.0,46.0,29.95,West,263,1.0,2.0,40,0.00,,,0.00,0.000000,,2013-08-03 03:43:00,
2013-08-02 20:53:00,72.0,46.0,29.95,West,263,1.0,2.0,40,0.00,,,0.00,0.000000,,2013-08-03 03:53:00,
2013-08-02 21:02:00,71.0,45.0,29.95,West,263,1.0,2.0,40,0.00,,,0.00,0.000000,,2013-08-03 04:02:00,
2013-08-02 21:11:00,71.0,45.0,29.95,West,263,1.0,2.0,40,0.00,,,0.00,0.000000,,2013-08-03 04:11:00,
2013-08-02 21:22:00,71.0,45.0,29.95,West,263,1.0,2.0,40,0.00,,,0.00,0.000000,,2013-08-03 04:22:00,
2013-08-02 21:53:00,69.0,46.0,29.96,West,269,1.0,3.0,44,0.00,,,0.00,0.000000,,2013-08-03 04:53:00,
2013-08-02 22:02:00,69.0,46.0,29.96,West,269,1.0,3.0,44,0.00,,,0.00,0.000000,,2013-08-03 05:02:00,
2013-08-02 22:22:00,67.0,52.0,29.96,West,269,1.0,2.0,59,0.00,,,0.00,0.000000,,2013-08-03 05:22:00,
2013-08-02 22:32:00,66.0,52.0,29.96,West,269,1.0,2.0,60,0.00,,,0.00,0.000000,,2013-08-03 05:32:00,
2013-08-02 22:52:00,66.0,53.0,29.96,West,269,1.0,2.0,62,0.00,,,0.00,0.000000,,2013-08-03 05:52:00,
2013-08-02 23:02:00,65.0,53.0,29.96,West,269,1.0,2.0,64,0.00,,,0.00,0.000000,,2013-08-03 06:02:00,
2013-08-02 23:22:00,64.0,53.0,29.96,West,269,1.0,3.0,68,0.00,,,0.00,0.000000,,2013-08-03 06:22:00,
2013-08-02 23:32:00,63.0,53.0,29.96,West,269,2.0,3.0,70,0.00,,,0.00,0.000000,,2013-08-03 06:32:00,
2013-08-02 23:42:00,62.0,53.0,29.96,West,269,2.0,2.0,72,0.00,,,0.00,0.000000,,2013-08-03 06:42:00,
2013-08-02 23:52:00,62.0,53.0,29.96,West,269,2.0,2.0,72,0.00,,,0.00,0.000000,,2013-08-03 06:52:00,